sensor_id;sensor_type;location;lat;lon;timestamp;temperature;humidity
71173;DHT22;58875;51.996;4.504;2023-07-20T00:01:22;17.75;81.72
71173;DHT22;58875;51.996;4.504;2023-07-20T00:03:48;17.82;81.91
71173;DHT22;58875;51.996;4.504;2023-07-20T00:06:21;17.79;81.26
71173;DHT22;58875;51.996;4.504;2023-07-20T00:08:46;17.75;81.76
71173;DHT22;58875;51.996;4.504;2023-07-20T00:11:12;17.83;81.73
71173;DHT22;58875;51.996;4.504;2023-07-20T00:13:39;17.85;81.50
71173;DHT22;58875;51.996;4.504;2023-07-20T00:16:05;17.83;81.00
71173;DHT22;58875;51.996;4.504;2023-07-20T00:18:31;17.71;80.77
71173;DHT22;58875;51.996;4.504;2023-07-20T00:20:57;17.61;80.86
71173;DHT22;58875;51.996;4.504;2023-07-20T00:23:22;17.63;81.40
71173;DHT22;58875;51.996;4.504;2023-07-20T00:25:48;17.71;81.74
71173;DHT22;58875;51.996;4.504;2023-07-20T00:28:14;17.75;81.32
71173;DHT22;58875;51.996;4.504;2023-07-20T00:30:40;17.73;81.05
71173;DHT22;58875;51.996;4.504;2023-07-20T00:33:11;17.66;81.04
71173;DHT22;58875;51.996;4.504;2023-07-20T00:35:37;17.62;80.82
71173;DHT22;58875;51.996;4.504;2023-07-20T00:38:04;17.59;81.07
71173;DHT22;58875;51.996;4.504;2023-07-20T00:40:40;17.58;80.88
71173;DHT22;58875;51.996;4.504;2023-07-20T00:43:06;17.52;80.93
71173;DHT22;58875;51.996;4.504;2023-07-20T00:45:33;17.55;80.94
71173;DHT22;58875;51.996;4.504;2023-07-20T00:48:01;17.56;80.87
71173;DHT22;58875;51.996;4.504;2023-07-20T00:50:28;17.55;80.64
71173;DHT22;58875;51.996;4.504;2023-07-20T00:52:58;17.48;80.51
71173;DHT22;58875;51.996;4.504;2023-07-20T00:55:24;17.48;80.54
71173;DHT22;58875;51.996;4.504;2023-07-20T00:57:53;17.43;80.42
71173;DHT22;58875;51.996;4.504;2023-07-20T01:00:19;17.39;80.50
71173;DHT22;58875;51.996;4.504;2023-07-20T01:02:45;17.39;80.59
71173;DHT22;58875;51.996;4.504;2023-07-20T01:05:13;17.35;80.64
71173;DHT22;58875;51.996;4.504;2023-07-20T01:07:59;17.32;80.54
71173;DHT22;58875;51.996;4.504;2023-07-20T01:10:36;17.31;80.38
71173;DHT22;58875;51.996;4.504;2023-07-20T01:13:06;17.18;80.24
71173;DHT22;58875;51.996;4.504;2023-07-20T01:15:34;17.17;80.06
71173;DHT22;58875;51.996;4.504;2023-07-20T01:17:59;17.12;80.34
71173;DHT22;58875;51.996;4.504;2023-07-20T01:20:28;17.08;80.35
71173;DHT22;58875;51.996;4.504;2023-07-20T01:26:23;16.95;80.21
71173;DHT22;58875;51.996;4.504;2023-07-20T01:31:51;16.90;80.23
71173;DHT22;58875;51.996;4.504;2023-07-20T01:34:19;16.87;80.34
71173;DHT22;58875;51.996;4.504;2023-07-20T01:36:50;16.90;80.27
71173;DHT22;58875;51.996;4.504;2023-07-20T01:39:19;16.81;80.25
71173;DHT22;58875;51.996;4.504;2023-07-20T01:41:46;16.76;80.31
71173;DHT22;58875;51.996;4.504;2023-07-20T01:44:12;16.67;80.44
71173;DHT22;58875;51.996;4.504;2023-07-20T01:46:38;16.73;80.54
71173;DHT22;58875;51.996;4.504;2023-07-20T01:49:04;16.70;80.85
71173;DHT22;58875;51.996;4.504;2023-07-20T01:51:29;16.67;80.58
71173;DHT22;58875;51.996;4.504;2023-07-20T01:53:54;16.66;80.80
71173;DHT22;58875;51.996;4.504;2023-07-20T01:56:23;16.59;80.89
71173;DHT22;58875;51.996;4.504;2023-07-20T01:58:48;16.56;80.81
71173;DHT22;58875;51.996;4.504;2023-07-20T02:01:14;16.53;80.50
71173;DHT22;58875;51.996;4.504;2023-07-20T02:03:39;16.55;80.80
71173;DHT22;58875;51.996;4.504;2023-07-20T02:06:05;16.55;80.70
71173;DHT22;58875;51.996;4.504;2023-07-20T02:08:30;16.56;80.69
71173;DHT22;58875;51.996;4.504;2023-07-20T02:10:56;16.56;80.67
71173;DHT22;58875;51.996;4.504;2023-07-20T02:13:21;16.57;80.86
71173;DHT22;58875;51.996;4.504;2023-07-20T02:15:47;16.60;80.97
71173;DHT22;58875;51.996;4.504;2023-07-20T02:18:14;16.64;80.95
71173;DHT22;58875;51.996;4.504;2023-07-20T02:20:41;16.67;81.37
71173;DHT22;58875;51.996;4.504;2023-07-20T02:23:06;16.66;80.85
71173;DHT22;58875;51.996;4.504;2023-07-20T02:25:32;16.63;80.89
71173;DHT22;58875;51.996;4.504;2023-07-20T02:27:57;16.60;80.85
71173;DHT22;58875;51.996;4.504;2023-07-20T02:30:24;16.60;81.16
71173;DHT22;58875;51.996;4.504;2023-07-20T02:32:49;16.66;81.27
71173;DHT22;58875;51.996;4.504;2023-07-20T02:35:15;16.60;81.20
71173;DHT22;58875;51.996;4.504;2023-07-20T02:37:41;16.64;81.04
71173;DHT22;58875;51.996;4.504;2023-07-20T02:40:07;16.62;80.79
71173;DHT22;58875;51.996;4.504;2023-07-20T02:42:33;16.59;80.64
71173;DHT22;58875;51.996;4.504;2023-07-20T02:44:58;16.59;80.72
71173;DHT22;58875;51.996;4.504;2023-07-20T02:47:24;16.53;80.78
71173;DHT22;58875;51.996;4.504;2023-07-20T02:49:50;16.52;80.69
71173;DHT22;58875;51.996;4.504;2023-07-20T02:52:16;16.49;81.02
71173;DHT22;58875;51.996;4.504;2023-07-20T02:54:41;16.52;81.15
71173;DHT22;58875;51.996;4.504;2023-07-20T02:57:07;16.49;81.06
71173;DHT22;58875;51.996;4.504;2023-07-20T02:59:32;16.50;81.03
71173;DHT22;58875;51.996;4.504;2023-07-20T03:01:58;16.53;81.28
71173;DHT22;58875;51.996;4.504;2023-07-20T03:04:27;16.53;81.39
71173;DHT22;58875;51.996;4.504;2023-07-20T03:06:52;16.62;81.44
71173;DHT22;58875;51.996;4.504;2023-07-20T03:09:18;16.63;81.68
71173;DHT22;58875;51.996;4.504;2023-07-20T03:11:44;16.66;81.57
71173;DHT22;58875;51.996;4.504;2023-07-20T03:14:09;16.67;81.17
71173;DHT22;58875;51.996;4.504;2023-07-20T03:16:36;16.60;81.12
71173;DHT22;58875;51.996;4.504;2023-07-20T03:19:01;16.59;80.98
71173;DHT22;58875;51.996;4.504;2023-07-20T03:21:27;16.56;80.94
71173;DHT22;58875;51.996;4.504;2023-07-20T03:23:52;16.55;80.82
71173;DHT22;58875;51.996;4.504;2023-07-20T03:26:19;16.52;80.62
71173;DHT22;58875;51.996;4.504;2023-07-20T03:28:44;16.45;80.86
71173;DHT22;58875;51.996;4.504;2023-07-20T03:33:36;16.40;81.18
71173;DHT22;58875;51.996;4.504;2023-07-20T03:36:01;16.40;81.16
71173;DHT22;58875;51.996;4.504;2023-07-20T03:38:27;16.39;81.11
71173;DHT22;58875;51.996;4.504;2023-07-20T03:40:58;16.40;81.11
71173;DHT22;58875;51.996;4.504;2023-07-20T03:43:25;16.36;81.19
71173;DHT22;58875;51.996;4.504;2023-07-20T03:45:52;16.38;81.27
71173;DHT22;58875;51.996;4.504;2023-07-20T03:48:24;16.33;81.29
71173;DHT22;58875;51.996;4.504;2023-07-20T03:50:52;16.32;81.38
71173;DHT22;58875;51.996;4.504;2023-07-20T03:53:18;16.29;81.35
71173;DHT22;58875;51.996;4.504;2023-07-20T03:55:48;16.23;81.21
71173;DHT22;58875;51.996;4.504;2023-07-20T03:58:14;16.25;81.25
71173;DHT22;58875;51.996;4.504;2023-07-20T04:00:46;16.23;81.29
71173;DHT22;58875;51.996;4.504;2023-07-20T04:03:12;16.28;81.47
71173;DHT22;58875;51.996;4.504;2023-07-20T04:05:38;16.28;81.40
71173;DHT22;58875;51.996;4.504;2023-07-20T04:08:04;16.22;81.36
71173;DHT22;58875;51.996;4.504;2023-07-20T04:10:29;16.25;81.47
71173;DHT22;58875;51.996;4.504;2023-07-20T04:12:55;16.26;81.48
71173;DHT22;58875;51.996;4.504;2023-07-20T04:15:21;16.23;81.53
71173;DHT22;58875;51.996;4.504;2023-07-20T04:17:46;16.26;81.76
71173;DHT22;58875;51.996;4.504;2023-07-20T04:20:12;16.29;81.60
71173;DHT22;58875;51.996;4.504;2023-07-20T04:22:38;16.29;81.49
71173;DHT22;58875;51.996;4.504;2023-07-20T04:25:04;16.28;81.66
71173;DHT22;58875;51.996;4.504;2023-07-20T04:27:30;16.30;81.71
71173;DHT22;58875;51.996;4.504;2023-07-20T04:29:57;16.32;81.77
71173;DHT22;58875;51.996;4.504;2023-07-20T04:32:22;16.30;81.74
71173;DHT22;58875;51.996;4.504;2023-07-20T04:34:48;16.33;81.59
71173;DHT22;58875;51.996;4.504;2023-07-20T04:37:14;16.30;81.79
71173;DHT22;58875;51.996;4.504;2023-07-20T04:39:39;16.39;82.02
71173;DHT22;58875;51.996;4.504;2023-07-20T04:42:07;16.49;81.91
71173;DHT22;58875;51.996;4.504;2023-07-20T04:44:32;16.55;82.01
71173;DHT22;58875;51.996;4.504;2023-07-20T04:46:58;16.62;81.78
71173;DHT22;58875;51.996;4.504;2023-07-20T04:49:23;16.66;81.95
71173;DHT22;58875;51.996;4.504;2023-07-20T04:51:49;16.76;82.14
71173;DHT22;58875;51.996;4.504;2023-07-20T04:54:14;16.77;81.86
71173;DHT22;58875;51.996;4.504;2023-07-20T04:56:42;16.80;81.83
71173;DHT22;58875;51.996;4.504;2023-07-20T04:59:07;16.84;81.83
71173;DHT22;58875;51.996;4.504;2023-07-20T05:01:33;16.80;81.58
71173;DHT22;58875;51.996;4.504;2023-07-20T05:03:58;16.76;81.72
71173;DHT22;58875;51.996;4.504;2023-07-20T05:06:24;16.74;82.20
71173;DHT22;58875;51.996;4.504;2023-07-20T05:08:49;16.80;82.24
71173;DHT22;58875;51.996;4.504;2023-07-20T05:11:15;16.90;82.31
71173;DHT22;58875;51.996;4.504;2023-07-20T05:13:40;16.94;82.24
71173;DHT22;58875;51.996;4.504;2023-07-20T05:16:06;16.95;82.03
71173;DHT22;58875;51.996;4.504;2023-07-20T05:18:31;17.01;82.17
71173;DHT22;58875;51.996;4.504;2023-07-20T05:20:57;17.07;82.01
71173;DHT22;58875;51.996;4.504;2023-07-20T05:23:23;17.11;81.84
71173;DHT22;58875;51.996;4.504;2023-07-20T05:25:58;17.14;81.71
71173;DHT22;58875;51.996;4.504;2023-07-20T05:28:24;17.15;81.47
71173;DHT22;58875;51.996;4.504;2023-07-20T05:30:50;17.17;81.72
71173;DHT22;58875;51.996;4.504;2023-07-20T05:33:22;17.22;81.69
71173;DHT22;58875;51.996;4.504;2023-07-20T05:35:48;17.27;81.48
71173;DHT22;58875;51.996;4.504;2023-07-20T05:38:13;17.32;81.53
71173;DHT22;58875;51.996;4.504;2023-07-20T05:40:44;17.41;81.68
71173;DHT22;58875;51.996;4.504;2023-07-20T05:43:10;17.43;81.71
71173;DHT22;58875;51.996;4.504;2023-07-20T05:45:36;17.49;81.27
71173;DHT22;58875;51.996;4.504;2023-07-20T05:48:02;17.53;81.47
71173;DHT22;58875;51.996;4.504;2023-07-20T05:50:28;17.58;81.08
71173;DHT22;58875;51.996;4.504;2023-07-20T05:52:54;17.55;80.83
71173;DHT22;58875;51.996;4.504;2023-07-20T05:55:20;17.61;80.91
71173;DHT22;58875;51.996;4.504;2023-07-20T05:57:48;17.51;80.49
71173;DHT22;58875;51.996;4.504;2023-07-20T06:00:15;17.56;80.57
71173;DHT22;58875;51.996;4.504;2023-07-20T06:02:41;17.56;80.41
71173;DHT22;58875;51.996;4.504;2023-07-20T06:05:07;17.61;80.44
71173;DHT22;58875;51.996;4.504;2023-07-20T06:07:38;17.63;80.44
71173;DHT22;58875;51.996;4.504;2023-07-20T06:10:05;17.71;80.36
71173;DHT22;58875;51.996;4.504;2023-07-20T06:12:31;17.76;80.48
71173;DHT22;58875;51.996;4.504;2023-07-20T06:14:57;17.83;80.20
71173;DHT22;58875;51.996;4.504;2023-07-20T06:17:23;17.81;79.27
71173;DHT22;58875;51.996;4.504;2023-07-20T06:19:48;17.75;78.53
71173;DHT22;58875;51.996;4.504;2023-07-20T06:22:14;17.79;78.59
71173;DHT22;58875;51.996;4.504;2023-07-20T06:24:43;17.83;78.21
71173;DHT22;58875;51.996;4.504;2023-07-20T06:27:08;17.93;78.28
71173;DHT22;58875;51.996;4.504;2023-07-20T06:29:34;18.06;77.51
71173;DHT22;58875;51.996;4.504;2023-07-20T06:31:59;18.20;75.80
71173;DHT22;58875;51.996;4.504;2023-07-20T06:34:25;18.24;76.03
71173;DHT22;58875;51.996;4.504;2023-07-20T06:36:50;18.27;75.05
71173;DHT22;58875;51.996;4.504;2023-07-20T06:39:16;18.50;75.95
71173;DHT22;58875;51.996;4.504;2023-07-20T06:41:41;18.61;73.84
71173;DHT22;58875;51.996;4.504;2023-07-20T06:44:07;18.71;73.35
71173;DHT22;58875;51.996;4.504;2023-07-20T06:46:33;18.84;72.64
71173;DHT22;58875;51.996;4.504;2023-07-20T06:48:58;18.99;72.77
71173;DHT22;58875;51.996;4.504;2023-07-20T06:51:24;19.05;71.03
71173;DHT22;58875;51.996;4.504;2023-07-20T06:53:49;18.98;70.47
71173;DHT22;58875;51.996;4.504;2023-07-20T06:56:15;19.08;71.00
71173;DHT22;58875;51.996;4.504;2023-07-20T06:58:40;19.32;72.43
71173;DHT22;58875;51.996;4.504;2023-07-20T07:01:07;19.52;71.91
71173;DHT22;58875;51.996;4.504;2023-07-20T07:03:33;19.45;67.56
71173;DHT22;58875;51.996;4.504;2023-07-20T07:06:00;19.43;67.96
71173;DHT22;58875;51.996;4.504;2023-07-20T07:08:26;19.57;69.47
71173;DHT22;58875;51.996;4.504;2023-07-20T07:10:52;19.60;68.34
71173;DHT22;58875;51.996;4.504;2023-07-20T07:13:19;19.70;68.39
71173;DHT22;58875;51.996;4.504;2023-07-20T07:15:44;19.77;69.40
71173;DHT22;58875;51.996;4.504;2023-07-20T07:18:10;19.83;68.75
71173;DHT22;58875;51.996;4.504;2023-07-20T07:20:36;19.74;66.55
71173;DHT22;58875;51.996;4.504;2023-07-20T07:23:01;19.77;67.19
71173;DHT22;58875;51.996;4.504;2023-07-20T07:25:27;19.95;67.42
71173;DHT22;58875;51.996;4.504;2023-07-20T07:27:54;19.88;67.27
71173;DHT22;58875;51.996;4.504;2023-07-20T07:30:21;19.75;67.34
71173;DHT22;58875;51.996;4.504;2023-07-20T07:32:47;19.77;67.93
71173;DHT22;58875;51.996;4.504;2023-07-20T07:35:13;19.70;68.83
71173;DHT22;58875;51.996;4.504;2023-07-20T07:37:38;19.87;67.44
71173;DHT22;58875;51.996;4.504;2023-07-20T07:40:04;20.07;66.90
71173;DHT22;58875;51.996;4.504;2023-07-20T07:42:31;19.87;66.79
71173;DHT22;58875;51.996;4.504;2023-07-20T07:44:57;19.80;65.36
71173;DHT22;58875;51.996;4.504;2023-07-20T07:47:22;19.95;67.45
71173;DHT22;58875;51.996;4.504;2023-07-20T07:49:48;20.05;66.52
71173;DHT22;58875;51.996;4.504;2023-07-20T07:52:13;19.91;64.05
71173;DHT22;58875;51.996;4.504;2023-07-20T07:54:39;20.07;63.78
71173;DHT22;58875;51.996;4.504;2023-07-20T07:57:05;19.64;65.30
71173;DHT22;58875;51.996;4.504;2023-07-20T07:59:31;19.60;67.24
71173;DHT22;58875;51.996;4.504;2023-07-20T08:02:02;19.81;67.02
71173;DHT22;58875;51.996;4.504;2023-07-20T08:04:27;19.46;64.23
71173;DHT22;58875;51.996;4.504;2023-07-20T08:06:53;19.50;65.10
71173;DHT22;58875;51.996;4.504;2023-07-20T08:09:18;19.75;64.36
71173;DHT22;58875;51.996;4.504;2023-07-20T08:11:44;19.75;65.08
71173;DHT22;58875;51.996;4.504;2023-07-20T08:14:09;19.45;64.93
71173;DHT22;58875;51.996;4.504;2023-07-20T08:16:35;19.37;68.29
71173;DHT22;58875;51.996;4.504;2023-07-20T08:19:00;19.40;69.49
71173;DHT22;58875;51.996;4.504;2023-07-20T08:21:27;19.36;69.12
71173;DHT22;58875;51.996;4.504;2023-07-20T08:23:52;19.29;69.52
71173;DHT22;58875;51.996;4.504;2023-07-20T08:26:18;19.15;68.75
71173;DHT22;58875;51.996;4.504;2023-07-20T08:28:44;19.02;69.70
71173;DHT22;58875;51.996;4.504;2023-07-20T08:31:11;18.92;70.48
71173;DHT22;58875;51.996;4.504;2023-07-20T08:33:36;18.76;69.36
71173;DHT22;58875;51.996;4.504;2023-07-20T08:36:02;18.67;71.00
71173;DHT22;58875;51.996;4.504;2023-07-20T08:38:28;18.61;70.76
71173;DHT22;58875;51.996;4.504;2023-07-20T08:40:54;18.76;70.16
71173;DHT22;58875;51.996;4.504;2023-07-20T08:43:22;19.19;68.73
71173;DHT22;58875;51.996;4.504;2023-07-20T08:45:54;19.47;66.91
71173;DHT22;58875;51.996;4.504;2023-07-20T08:48:21;19.80;66.09
71173;DHT22;58875;51.996;4.504;2023-07-20T08:50:50;20.04;62.95
71173;DHT22;58875;51.996;4.504;2023-07-20T08:53:17;20.20;64.42
71173;DHT22;58875;51.996;4.504;2023-07-20T08:55:45;20.48;63.55
71173;DHT22;58875;51.996;4.504;2023-07-20T08:58:12;20.72;61.48
71173;DHT22;58875;51.996;4.504;2023-07-20T09:00:41;20.82;61.47
71173;DHT22;58875;51.996;4.504;2023-07-20T09:03:07;20.99;60.52
71173;DHT22;58875;51.996;4.504;2023-07-20T09:05:35;21.14;60.93
71173;DHT22;58875;51.996;4.504;2023-07-20T09:08:01;21.16;60.18
71173;DHT22;58875;51.996;4.504;2023-07-20T09:10:29;21.33;61.61
71173;DHT22;58875;51.996;4.504;2023-07-20T09:12:54;21.58;60.04
71173;DHT22;58875;51.996;4.504;2023-07-20T09:15:22;21.74;59.98
71173;DHT22;58875;51.996;4.504;2023-07-20T09:17:50;21.95;58.07
71173;DHT22;58875;51.996;4.504;2023-07-20T09:20:17;22.10;58.24
71173;DHT22;58875;51.996;4.504;2023-07-20T09:22:44;21.89;55.76
71173;DHT22;58875;51.996;4.504;2023-07-20T09:25:17;21.68;59.75
71173;DHT22;58875;51.996;4.504;2023-07-20T09:27:46;21.68;58.96
71173;DHT22;58875;51.996;4.504;2023-07-20T09:30:12;21.78;57.98
71173;DHT22;58875;51.996;4.504;2023-07-20T09:32:47;21.92;58.43
71173;DHT22;58875;51.996;4.504;2023-07-20T09:35:20;22.06;56.79
71173;DHT22;58875;51.996;4.504;2023-07-20T09:37:58;22.10;56.28
71173;DHT22;58875;51.996;4.504;2023-07-20T09:40:25;22.37;59.30
71173;DHT22;58875;51.996;4.504;2023-07-20T09:42:53;22.77;56.23
71173;DHT22;58875;51.996;4.504;2023-07-20T09:45:29;22.81;55.92
71173;DHT22;58875;51.996;4.504;2023-07-20T09:48:03;22.81;56.40
71173;DHT22;58875;51.996;4.504;2023-07-20T09:50:30;22.83;56.77
71173;DHT22;58875;51.996;4.504;2023-07-20T09:52:56;22.63;55.84
71173;DHT22;58875;51.996;4.504;2023-07-20T09:55:22;22.36;56.97
71173;DHT22;58875;51.996;4.504;2023-07-20T09:57:49;22.06;57.02
71173;DHT22;58875;51.996;4.504;2023-07-20T10:00:15;21.64;57.09
71173;DHT22;58875;51.996;4.504;2023-07-20T10:02:45;21.51;57.97
71173;DHT22;58875;51.996;4.504;2023-07-20T10:05:12;21.61;57.20
71173;DHT22;58875;51.996;4.504;2023-07-20T10:07:52;21.53;56.92
71173;DHT22;58875;51.996;4.504;2023-07-20T10:10:19;21.31;58.16
71173;DHT22;58875;51.996;4.504;2023-07-20T10:12:47;21.13;59.29
71173;DHT22;58875;51.996;4.504;2023-07-20T10:15:25;21.33;58.84
71173;DHT22;58875;51.996;4.504;2023-07-20T10:17:59;21.73;61.99
71173;DHT22;58875;51.996;4.504;2023-07-20T10:20:28;22.17;58.25
71173;DHT22;58875;51.996;4.504;2023-07-20T10:22:56;22.28;55.13
71173;DHT22;58875;51.996;4.504;2023-07-20T10:25:23;21.98;55.06
71173;DHT22;58875;51.996;4.504;2023-07-20T10:27:49;21.86;56.27
71173;DHT22;58875;51.996;4.504;2023-07-20T10:30:17;21.92;57.31
71173;DHT22;58875;51.996;4.504;2023-07-20T10:32:44;21.78;56.68
71173;DHT22;58875;51.996;4.504;2023-07-20T10:35:15;21.61;56.40
71173;DHT22;58875;51.996;4.504;2023-07-20T10:37:51;21.27;57.09
71173;DHT22;58875;51.996;4.504;2023-07-20T10:40:25;21.19;57.27
71173;DHT22;58875;51.996;4.504;2023-07-20T10:42:51;21.17;55.77
71173;DHT22;58875;51.996;4.504;2023-07-20T10:45:19;21.07;57.44
71173;DHT22;58875;51.996;4.504;2023-07-20T10:47:46;21.13;58.56
71173;DHT22;58875;51.996;4.504;2023-07-20T10:50:12;21.44;58.12
71173;DHT22;58875;51.996;4.504;2023-07-20T10:52:40;21.47;57.59
71173;DHT22;58875;51.996;4.504;2023-07-20T10:55:16;21.69;56.19
71173;DHT22;58875;51.996;4.504;2023-07-20T10:57:42;21.94;56.29
71173;DHT22;58875;51.996;4.504;2023-07-20T11:00:09;22.28;56.40
71173;DHT22;58875;51.996;4.504;2023-07-20T11:02:48;22.15;55.04
71173;DHT22;58875;51.996;4.504;2023-07-20T11:05:38;22.26;54.63
71173;DHT22;58875;51.996;4.504;2023-07-20T11:08:09;22.09;53.23
71173;DHT22;58875;51.996;4.504;2023-07-20T11:10:35;21.84;53.98
71173;DHT22;58875;51.996;4.504;2023-07-20T11:13:36;22.19;56.40
71173;DHT22;58875;51.996;4.504;2023-07-20T11:16:18;22.40;54.23
71173;DHT22;58875;51.996;4.504;2023-07-20T11:18:44;22.10;54.42
71173;DHT22;58875;51.996;4.504;2023-07-20T11:21:10;21.69;53.76
71173;DHT22;58875;51.996;4.504;2023-07-20T11:23:38;21.57;55.96
71173;DHT22;58875;51.996;4.504;2023-07-20T11:26:04;21.48;55.22
71173;DHT22;58875;51.996;4.504;2023-07-20T11:28:30;21.51;56.35
71173;DHT22;58875;51.996;4.504;2023-07-20T11:30:55;21.99;54.62
71173;DHT22;58875;51.996;4.504;2023-07-20T11:33:21;22.20;54.43
71173;DHT22;58875;51.996;4.504;2023-07-20T11:35:49;22.40;53.16
71173;DHT22;58875;51.996;4.504;2023-07-20T11:38:16;22.33;51.02
71173;DHT22;58875;51.996;4.504;2023-07-20T11:40:45;22.22;55.12
71173;DHT22;58875;51.996;4.504;2023-07-20T11:43:15;22.19;55.36
71173;DHT22;58875;51.996;4.504;2023-07-20T11:45:41;22.13;53.58
71173;DHT22;58875;51.996;4.504;2023-07-20T11:48:06;21.98;55.02
71173;DHT22;58875;51.996;4.504;2023-07-20T11:50:38;21.98;53.70
71173;DHT22;58875;51.996;4.504;2023-07-20T11:53:04;22.22;54.81
71173;DHT22;58875;51.996;4.504;2023-07-20T11:55:30;22.54;53.28
71173;DHT22;58875;51.996;4.504;2023-07-20T11:58:07;22.49;52.71
71173;DHT22;58875;51.996;4.504;2023-07-20T12:00:34;22.29;53.41
71173;DHT22;58875;51.996;4.504;2023-07-20T12:03:01;22.43;52.62
71173;DHT22;58875;51.996;4.504;2023-07-20T12:05:26;22.25;52.83
71173;DHT22;58875;51.996;4.504;2023-07-20T12:07:52;22.37;51.25
71173;DHT22;58875;51.996;4.504;2023-07-20T12:10:28;22.78;51.06
71173;DHT22;58875;51.996;4.504;2023-07-20T12:12:54;23.18;53.56
71173;DHT22;58875;51.996;4.504;2023-07-20T12:15:25;23.63;50.71
71173;DHT22;58875;51.996;4.504;2023-07-20T12:18:01;23.96;50.28
71173;DHT22;58875;51.996;4.504;2023-07-20T12:20:30;24.07;49.48
71173;DHT22;58875;51.996;4.504;2023-07-20T12:23:01;23.65;49.52
71173;DHT22;58875;51.996;4.504;2023-07-20T12:25:40;23.96;49.30
71173;DHT22;58875;51.996;4.504;2023-07-20T12:28:14;23.97;50.26
71173;DHT22;58875;51.996;4.504;2023-07-20T12:30:42;23.73;48.52
71173;DHT22;58875;51.996;4.504;2023-07-20T12:33:08;23.66;50.51
71173;DHT22;58875;51.996;4.504;2023-07-20T12:35:34;23.41;50.40
71173;DHT22;58875;51.996;4.504;2023-07-20T12:38:00;22.80;50.73
71173;DHT22;58875;51.996;4.504;2023-07-20T12:40:26;22.47;51.38
71173;DHT22;58875;51.996;4.504;2023-07-20T12:42:51;22.57;51.53
71173;DHT22;58875;51.996;4.504;2023-07-20T12:45:17;22.88;51.03
71173;DHT22;58875;51.996;4.504;2023-07-20T12:47:43;23.07;50.44
71173;DHT22;58875;51.996;4.504;2023-07-20T12:50:10;23.31;51.10
71173;DHT22;58875;51.996;4.504;2023-07-20T12:52:37;23.31;49.74
71173;DHT22;58875;51.996;4.504;2023-07-20T12:55:04;23.14;49.70
71173;DHT22;58875;51.996;4.504;2023-07-20T12:57:30;23.14;50.77
71173;DHT22;58875;51.996;4.504;2023-07-20T12:59:55;22.97;51.34
71173;DHT22;58875;51.996;4.504;2023-07-20T13:02:21;22.73;53.67
71173;DHT22;58875;51.996;4.504;2023-07-20T13:04:46;22.67;51.84
71173;DHT22;58875;51.996;4.504;2023-07-20T13:07:12;22.66;53.11
71173;DHT22;58875;51.996;4.504;2023-07-20T13:09:37;22.57;52.00
71173;DHT22;58875;51.996;4.504;2023-07-20T13:12:03;22.74;52.28
71173;DHT22;58875;51.996;4.504;2023-07-20T13:14:28;23.00;51.51
71173;DHT22;58875;51.996;4.504;2023-07-20T13:16:55;23.24;52.11
71173;DHT22;58875;51.996;4.504;2023-07-20T13:19:21;23.55;52.56
71173;DHT22;58875;51.996;4.504;2023-07-20T13:21:47;23.52;49.92
71173;DHT22;58875;51.996;4.504;2023-07-20T13:24:13;23.39;52.20
71173;DHT22;58875;51.996;4.504;2023-07-20T13:26:39;23.54;49.91
71173;DHT22;58875;51.996;4.504;2023-07-20T13:29:04;23.79;48.76
71173;DHT22;58875;51.996;4.504;2023-07-20T13:31:30;23.82;49.76
71173;DHT22;58875;51.996;4.504;2023-07-20T13:33:55;23.95;50.22
71173;DHT22;58875;51.996;4.504;2023-07-20T13:36:22;24.27;46.86
71173;DHT22;58875;51.996;4.504;2023-07-20T13:38:48;24.31;48.66
71173;DHT22;58875;51.996;4.504;2023-07-20T13:41:14;24.14;47.17
71173;DHT22;58875;51.996;4.504;2023-07-20T13:43:40;23.80;47.27
71173;DHT22;58875;51.996;4.504;2023-07-20T13:46:06;23.46;49.09
71173;DHT22;58875;51.996;4.504;2023-07-20T13:48:31;23.62;51.01
71173;DHT22;58875;51.996;4.504;2023-07-20T13:50:57;23.61;46.98
71173;DHT22;58875;51.996;4.504;2023-07-20T13:53:22;23.70;48.87
71173;DHT22;58875;51.996;4.504;2023-07-20T13:55:48;24.06;46.99
71173;DHT22;58875;51.996;4.504;2023-07-20T13:58:14;24.28;46.00
71173;DHT22;58875;51.996;4.504;2023-07-20T14:00:40;24.38;47.71
71173;DHT22;58875;51.996;4.504;2023-07-20T14:03:05;24.30;47.01
71173;DHT22;58875;51.996;4.504;2023-07-20T14:05:31;24.23;48.06
71173;DHT22;58875;51.996;4.504;2023-07-20T14:07:56;24.34;47.05
71173;DHT22;58875;51.996;4.504;2023-07-20T14:10:22;24.18;47.90
71173;DHT22;58875;51.996;4.504;2023-07-20T14:12:48;24.09;46.32
71173;DHT22;58875;51.996;4.504;2023-07-20T14:15:13;24.07;46.06
71173;DHT22;58875;51.996;4.504;2023-07-20T14:17:39;24.05;46.41
71173;DHT22;58875;51.996;4.504;2023-07-20T14:20:05;23.82;46.12
71173;DHT22;58875;51.996;4.504;2023-07-20T14:22:31;23.65;48.65
71173;DHT22;58875;51.996;4.504;2023-07-20T14:24:56;23.55;47.32
71173;DHT22;58875;51.996;4.504;2023-07-20T14:27:22;23.42;48.46
71173;DHT22;58875;51.996;4.504;2023-07-20T14:29:47;23.31;50.18
71173;DHT22;58875;51.996;4.504;2023-07-20T14:32:13;23.38;48.38
71173;DHT22;58875;51.996;4.504;2023-07-20T14:34:39;23.42;48.41
71173;DHT22;58875;51.996;4.504;2023-07-20T14:37:06;23.26;47.57
71173;DHT22;58875;51.996;4.504;2023-07-20T14:39:31;23.25;47.89
71173;DHT22;58875;51.996;4.504;2023-07-20T14:41:57;23.32;48.80
71173;DHT22;58875;51.996;4.504;2023-07-20T14:44:23;23.35;48.00
71173;DHT22;58875;51.996;4.504;2023-07-20T14:46:48;23.39;48.70
71173;DHT22;58875;51.996;4.504;2023-07-20T14:49:14;23.38;49.03
71173;DHT22;58875;51.996;4.504;2023-07-20T14:51:39;23.19;49.23
71173;DHT22;58875;51.996;4.504;2023-07-20T14:54:09;23.10;47.54
71173;DHT22;58875;51.996;4.504;2023-07-20T14:56:37;22.95;50.65
71173;DHT22;58875;51.996;4.504;2023-07-20T14:59:03;22.93;48.37
71173;DHT22;58875;51.996;4.504;2023-07-20T15:01:29;22.80;50.05
71173;DHT22;58875;51.996;4.504;2023-07-20T15:03:54;22.66;49.48
71173;DHT22;58875;51.996;4.504;2023-07-20T15:06:21;22.56;49.91
71173;DHT22;58875;51.996;4.504;2023-07-20T15:08:47;22.54;50.52
71173;DHT22;58875;51.996;4.504;2023-07-20T15:11:12;22.61;52.07
71173;DHT22;58875;51.996;4.504;2023-07-20T15:13:38;22.66;51.00
71173;DHT22;58875;51.996;4.504;2023-07-20T15:16:04;22.64;51.30
71173;DHT22;58875;51.996;4.504;2023-07-20T15:18:29;22.49;51.12
71173;DHT22;58875;51.996;4.504;2023-07-20T15:20:55;22.29;52.12
71173;DHT22;58875;51.996;4.504;2023-07-20T15:23:20;22.28;51.09
71173;DHT22;58875;51.996;4.504;2023-07-20T15:25:45;22.28;52.14
71173;DHT22;58875;51.996;4.504;2023-07-20T15:28:11;22.37;49.93
71173;DHT22;58875;51.996;4.504;2023-07-20T15:30:37;22.52;51.24
71173;DHT22;58875;51.996;4.504;2023-07-20T15:33:02;22.73;49.32
71173;DHT22;58875;51.996;4.504;2023-07-20T15:35:28;22.67;50.17
71173;DHT22;58875;51.996;4.504;2023-07-20T15:37:53;22.74;49.98